Time;durP1;ratioP1;P1;durP2;ratioP2;P2;SDS_P1;SDS_P2;PMS_P1;PMS_P2;Temp;Humidity;BMP_temperature;BMP_pressure;BME280_temperature;BME280_humidity;BME280_pressure;Samples;Min_cycle;Max_cycle;Signal;HPM_P1;HPM_P2
2021/09/13 00:01:58;;;;;;;7.10;5.18;;;;;;;12.25;100.00;101899.25;2614314;36;20161;-64
2021/09/13 00:04:26;;;;;;;8.02;5.07;;;;;;;12.31;100.00;101896.06;2614329;36;20042;-64
2021/09/13 00:06:54;;;;;;;7.75;4.50;;;;;;;12.30;100.00;101904.28;2614624;36;20038;-64
2021/09/13 00:09:23;;;;;;;9.40;5.47;;;;;;;12.31;100.00;101896.06;2614281;36;20034;-66
2021/09/13 00:11:51;;;;;;;8.52;5.85;;;;;;;12.25;100.00;101897.41;2614177;36;20166;-63
2021/09/13 00:14:19;;;;;;;10.40;5.18;;;;;;;12.28;100.00;101899.03;2614363;36;20141;-65
2021/09/13 00:16:47;;;;;;;8.77;5.57;;;;;;;12.32;100.00;101903.16;2613978;36;20646;-64
2021/09/13 00:19:19;;;;;;;7.63;5.55;;;;;;;12.34;100.00;101895.81;2614905;31;20157;-63
2021/09/13 00:21:47;;;;;;;7.53;4.82;;;;;;;12.32;100.00;101899.63;2614176;36;20030;-64
2021/09/13 00:24:15;;;;;;;11.27;5.35;;;;;;;12.30;100.00;101893.50;2614581;36;20114;-64
2021/09/13 00:26:43;;;;;;;6.75;5.45;;;;;;;12.22;100.00;101896.78;2614305;36;20080;-63
2021/09/13 00:29:11;;;;;;;12.57;6.63;;;;;;;12.18;100.00;101890.78;2614135;36;20165;-64
2021/09/13 00:31:40;;;;;;;10.00;5.90;;;;;;;12.16;100.00;101881.97;2614034;36;20031;-64
2021/09/13 00:34:08;;;;;;;10.55;6.18;;;;;;;12.14;100.00;101881.19;2615824;31;20537;-65
2021/09/13 00:36:39;;;;;;;8.63;5.90;;;;;;;12.15;100.00;101890.19;2614724;36;20125;-65
2021/09/13 00:39:07;;;;;;;12.65;6.85;;;;;;;12.13;100.00;101889.41;2614637;36;20030;-64
2021/09/13 00:41:36;;;;;;;10.93;6.82;;;;;;;12.14;100.00;101888.44;2614051;36;20125;-63
2021/09/13 00:44:04;;;;;;;;;;;;;;;12.16;100.00;101890.06;2614171;36;20550;-65
2021/09/13 00:46:33;;;;;;;12.05;6.70;;;;;;;12.20;100.00;101887.97;2614727;36;20558;-63
2021/09/13 00:49:01;;;;;;;9.07;6.80;;;;;;;12.11;100.00;101889.53;2615417;36;20547;-64
2021/09/13 00:51:29;;;;;;;11.50;7.75;;;;;;;12.04;100.00;101889.19;2615761;36;20161;-62
2021/09/13 00:54:00;;;;;;;10.75;7.97;;;;;;;11.98;100.00;101888.78;2614594;36;20118;-63
2021/09/13 12:44:28;;;;;;;5.03;1.73;;;;;;;18.66;100.00;101895.28;2578556;36;52708;-63
2021/09/13 12:46:58;;;;;;;8.15;2.10;;;;;;;18.87;100.00;101886.72;2616621;36;20034;-64
2021/09/13 12:49:29;;;;;;;5.90;1.60;;;;;;;18.67;100.00;101887.97;2617016;36;20039;-62
2021/09/13 12:51:58;;;;;;;5.18;1.73;;;;;;;18.60;100.00;101893.22;2617404;36;20030;-64
2021/09/13 12:55:12;;;;;;;;;;;;;;;;;;;;;
2021/09/13 12:58:15;;;;;;;4.93;1.40;;;;;;;18.79;100.00;101881.19;2615620;31;20030;-65
2021/09/13 13:04:57;;;;;;;4.05;2.13;;;;;;;19.39;100.00;101871.97;2647916;36;20037;-63
2021/09/13 13:08:01;;;;;;;3.90;1.77;;;;;;;19.18;100.00;101866.97;2635172;36;20043;-64
2021/09/13 13:10:30;;;;;;;7.43;1.55;;;;;;;19.25;100.00;101859.81;2616790;36;20036;-64
2021/09/13 13:12:58;;;;;;;8.05;1.70;;;;;;;19.22;100.00;101862.88;2617151;36;20125;-64
2021/09/13 13:15:28;;;;;;;4.82;1.60;;;;;;;19.34;100.00;101857.09;2617284;36;20053;-63
2021/09/13 13:17:56;;;;;;;7.22;1.90;;;;;;;19.41;100.00;101855.41;2617257;36;20057;-63
2021/09/13 13:23:50;;;;;;;5.50;1.80;;;;;;;19.27;100.00;101846.00;2633090;31;20023;-64
2021/09/13 13:29:33;;;;;;;9.45;2.28;;;;;;;19.43;100.00;101842.44;2633906;36;20130;-64
2021/09/13 13:32:01;;;;;;;7.30;2.43;;;;;;;19.56;100.00;101848.22;2615939;36;20122;-63
2021/09/13 13:34:31;;;;;;;5.27;1.77;;;;;;;19.74;100.00;101847.19;2616665;36;20339;-63
2021/09/13 13:37:02;;;;;;;7.03;1.50;;;;;;;19.75;100.00;101841.56;2617272;36;20035;-64
2021/09/13 13:43:35;;;;;;;;;;;;;;;;;;;;;
2021/09/13 13:46:29;;;;;;;4.78;1.90;;;;;;;20.11;100.00;101826.66;2633520;31;20034;-63
2021/09/13 13:49:19;;;;;;;;;;;;;;;;;;;;;
2021/09/13 13:52:33;;;;;;;4.63;1.60;;;;;;;19.72;100.00;101819.22;2634838;36;20480;-64
2021/09/13 13:58:20;;;;;;;4.55;1.67;;;;;;;19.92;100.00;101820.56;2633591;36;20034;-62
2021/09/13 14:01:05;;;;;;;4.13;1.45;;;;;;;19.91;100.00;101818.84;2616941;36;20058;-64
2021/09/13 14:04:03;;;;;;;;;;;;;;;;;;;;;
2021/09/13 14:06:49;;;;;;;4.43;1.48;;;;;;;20.21;100.00;101816.38;2633631;36;20030;-63
2021/09/13 14:09:41;;;;;;;;;;;;;;;;;;;;;
2021/09/13 14:12:18;;;;;;;6.15;1.40;;;;;;;20.82;100.00;101813.88;2651421;31;20131;-64
2021/09/13 14:14:49;;;;;;;5.60;1.35;;;;;;;20.74;100.00;101813.06;2634255;36;20150;-64
2021/09/13 14:17:26;;;;;;;4.47;2.03;;;;;;;20.68;100.00;101814.63;2616776;36;20038;-64
2021/09/13 14:19:56;;;;;;;2.13;1.10;;;;;;;20.81;100.00;101814.06;2617753;36;20433;-63
2021/09/13 14:22:29;;;;;;;4.18;1.60;;;;;;;20.74;100.00;101813.06;2634979;36;20059;-65
2021/09/13 14:25:25;;;;;;;7.55;1.90;;;;;;;20.77;100.00;101812.72;2633186;36;20574;-63
2021/09/13 14:28:28;;;;;;;5.78;1.80;;;;;;;20.35;100.00;101805.75;2633455;36;20138;-63
2021/09/13 14:31:03;;;;;;;3.78;1.52;;;;;;;20.37;100.00;101809.13;2616005;36;20439;-64
2021/09/13 14:33:32;;;;;;;3.08;1.60;;;;;;;20.19;100.00;101804.75;2616323;36;20078;-65
2021/09/13 14:36:00;;;;;;;4.68;1.30;;;;;;;20.40;100.00;101801.41;2616999;36;20030;-65
2021/09/13 14:38:28;;;;;;;4.05;1.30;;;;;;;20.52;100.00;101803.75;2616706;36;20139;-63
2021/09/13 14:40:57;;;;;;;5.13;1.52;;;;;;;20.12;100.00;101804.59;2616016;36;20122;-64
2021/09/13 14:43:25;;;;;;;5.43;1.77;;;;;;;20.30;100.00;101795.31;2616694;36;20026;-65
2021/09/13 14:45:54;;;;;;;3.97;1.33;;;;;;;20.49;100.00;101796.75;2616818;36;20062;-64
2021/09/13 14:48:24;;;;;;;4.07;1.50;;;;;;;20.72;100.00;101796.00;2616227;36;20029;-63
2021/09/13 14:50:53;;;;;;;5.95;1.65;;;;;;;20.44;100.00;101791.84;2616227;31;20039;-64
2021/09/13 14:53:21;;;;;;;5.57;1.58;;;;;;;20.37;100.00;101792.72;2615304;31;20118;-63
2021/09/13 14:55:49;;;;;;;5.55;1.60;;;;;;;20.04;100.00;101795.63;2616433;36;20030;-66
2021/09/13 14:58:17;;;;;;;2.75;1.48;;;;;;;19.83;100.00;101796.16;2617198;31;20493;-63
2021/09/13 15:00:46;;;;;;;7.33;2.00;;;;;;;19.99;100.00;101793.38;2616748;36;20533;-62
2021/09/13 15:03:14;;;;;;;4.43;1.40;;;;;;;20.19;100.00;101801.19;2615935;36;20420;-64
2021/09/13 15:05:47;;;;;;;3.75;1.60;;;;;;;19.95;100.00;101792.88;2614774;36;20070;-64
2021/09/13 15:08:17;;;;;;;4.93;1.50;;;;;;;19.90;100.00;101789.81;2616550;36;20074;-62
2021/09/13 15:10:45;;;;;;;5.13;1.60;;;;;;;19.94;100.00;101782.97;2616154;36;20130;-64
2021/09/13 15:13:14;;;;;;;4.22;1.42;;;;;;;20.00;100.00;101781.44;2616509;36;20151;-64
2021/09/13 15:15:42;;;;;;;5.43;1.40;;;;;;;19.96;100.00;101782.81;2615826;36;20063;-65
2021/09/13 15:18:10;;;;;;;3.08;1.40;;;;;;;19.94;100.00;101776.66;2615054;36;20082;-64
2021/09/13 15:20:45;;;;;;;2.83;1.50;;;;;;;19.72;100.00;101773.63;2615336;36;20666;-63
2021/09/13 15:23:16;;;;;;;3.80;1.38;;;;;;;19.59;100.00;101776.03;2612493;36;21084;-65
2021/09/13 15:25:45;;;;;;;2.28;1.10;;;;;;;19.73;100.00;101772.59;2615251;36;20736;-64
2021/09/13 15:28:14;;;;;;;4.18;1.48;;;;;;;19.57;100.00;101768.03;2615599;36;20030;-63
2021/09/13 15:30:42;;;;;;;3.22;1.20;;;;;;;19.35;100.00;101768.75;2616423;31;20081;-64
2021/09/13 15:33:11;;;;;;;3.60;1.25;;;;;;;19.12;100.00;101763.97;2616165;36;20106;-63
2021/09/13 15:35:39;;;;;;;;;;;;;;;19.11;100.00;101764.13;2616426;36;20038;-65
2021/09/13 15:38:08;;;;;;;1.90;1.07;;;;;;;19.22;100.00;101766.53;2615016;36;20510;-63
2021/09/13 15:40:39;;;;;;;3.83;1.20;;;;;;;19.29;100.00;101758.50;2616445;36;20531;-64
2021/09/13 15:43:07;;;;;;;4.43;1.33;;;;;;;19.09;100.00;101764.31;2615929;36;20063;-63
2021/09/13 15:45:37;;;;;;;3.47;1.30;;;;;;;19.18;100.00;101762.44;2616389;36;20038;-64
2021/09/13 15:48:06;;;;;;;1.35;1.10;;;;;;;19.09;100.00;101758.84;2616406;36;20279;-64
2021/09/13 15:50:34;;;;;;;4.63;1.60;;;;;;;18.95;100.00;101765.84;2617432;36;20166;-62
2021/09/13 15:53:03;;;;;;;4.80;1.23;;;;;;;18.83;100.00;101769.88;2616742;36;20030;-64
2021/09/13 15:55:31;;;;;;;4.82;1.70;;;;;;;18.81;100.00;101761.03;2616499;36;20032;-63
2021/09/13 15:58:02;;;;;;;1.50;1.00;;;;;;;18.97;100.00;101766.50;2616328;36;20335;-65
2021/09/13 16:00:30;;;;;;;1.48;1.02;;;;;;;19.03;100.00;101767.72;2617293;36;20290;-63
2021/09/13 16:02:58;;;;;;;4.17;1.53;;;;;;;19.13;100.00;101765.69;2616764;36;20125;-65
2021/09/13 16:05:26;;;;;;;4.67;1.17;;;;;;;19.21;100.00;101773.88;2613556;36;20394;-65
2021/09/13 16:07:55;;;;;;;5.57;1.40;;;;;;;19.13;100.00;101779.31;2615249;36;20125;-63
2021/09/13 16:10:24;;;;;;;1.77;1.20;;;;;;;18.90;100.00;101776.41;2616976;31;20762;-64
2021/09/13 16:12:52;;;;;;;;;;;;;;;19.00;100.00;101776.25;2617314;54;20330;-64
2021/09/13 16:15:24;;;;;;;4.25;1.33;;;;;;;18.77;100.00;101771.41;2614955;54;20063;-63
2021/09/13 17:19:02;;;;;;;5.35;1.75;;;;;;;17.27;100.00;101748.19;2593935;54;50704;-77
2021/09/13 17:21:31;;;;;;;3.97;1.95;;;;;;;17.33;100.00;101750.31;2621082;31;20547;-74
2021/09/13 17:24:00;;;;;;;8.77;3.40;;;;;;;17.14;100.00;101752.19;2620163;36;20082;-75
2021/09/13 17:26:30;;;;;;;5.57;2.72;;;;;;;17.01;100.00;101754.47;2620203;36;20026;-76
2021/09/13 17:28:58;;;;;;;4.78;3.08;;;;;;;16.92;100.00;101755.41;2619612;36;20034;-75
2021/09/13 17:31:27;;;;;;;5.15;2.58;;;;;;;16.86;100.00;101753.25;2619836;36;20035;-77
2021/09/13 17:33:57;;;;;;;4.22;2.20;;;;;;;16.66;100.00;101763.44;2616451;36;20181;-75
2021/09/13 17:36:27;;;;;;;5.05;2.00;;;;;;;16.54;100.00;101765.53;2620526;36;20034;-75
2021/09/13 17:38:56;;;;;;;5.78;2.67;;;;;;;16.57;100.00;101767.94;2615230;31;20569;-75
2021/09/13 17:41:24;;;;;;;8.75;2.35;;;;;;;16.51;100.00;101765.84;2614708;36;20038;-75
2021/09/13 17:43:54;;;;;;;6.53;2.43;;;;;;;16.43;100.00;101769.31;2611905;36;20114;-75
2021/09/13 17:46:23;;;;;;;7.00;2.88;;;;;;;16.23;100.00;101764.00;2615479;36;20041;-75
2021/09/13 17:48:52;;;;;;;6.68;2.60;;;;;;;16.15;100.00;101771.19;2616712;36;20455;-75
2021/09/13 17:51:20;;;;;;;4.80;2.42;;;;;;;16.08;100.00;101768.22;2616683;36;20635;-75
2021/09/13 17:53:51;;;;;;;7.53;2.53;;;;;;;15.95;100.00;101771.28;2616223;36;20038;-76
2021/09/13 17:56:22;;;;;;;3.53;2.05;;;;;;;15.79;100.00;101779.19;2615633;31;20034;-76
2021/09/13 17:58:53;;;;;;;5.93;2.42;;;;;;;15.67;100.00;101776.63;2616829;36;20654;-75
2021/09/13 18:25:50;;;;;;;5.90;2.40;;;;;;;15.01;100.00;101759.31;2613646;54;20061;-77
2021/09/13 18:28:20;;;;;;;6.78;2.95;;;;;;;14.94;100.00;101755.44;2615202;36;20023;-75
2021/09/13 18:30:50;;;;;;;4.97;3.58;;;;;;;14.89;100.00;101763.16;2616355;36;20049;-78
2021/09/13 18:33:18;;;;;;;5.90;4.53;;;;;;;14.89;100.00;101768.59;2614462;36;20040;-78
2021/09/13 18:35:46;;;;;;;10.20;4.50;;;;;;;14.86;100.00;101779.72;2615593;36;20057;-75
2021/09/13 18:38:14;;;;;;;6.03;5.13;;;;;;;14.80;100.00;101770.28;2612462;36;20538;-76
2021/09/13 18:40:45;;;;;;;5.57;4.13;;;;;;;14.76;100.00;101779.69;2614888;36;20027;-76
2021/09/13 18:43:14;;;;;;;7.25;4.32;;;;;;;14.78;100.00;101771.41;2615889;36;20026;-77
2021/09/13 18:45:42;;;;;;;6.00;3.70;;;;;;;14.68;100.00;101777.69;2616120;36;20188;-76
2021/09/13 18:48:10;;;;;;;7.13;3.88;;;;;;;14.61;100.00;101776.53;2616029;36;20076;-76
2021/09/13 18:50:39;;;;;;;8.00;3.60;;;;;;;14.55;100.00;101783.34;2615365;36;20031;-77
2021/09/13 18:53:07;;;;;;;7.00;3.73;;;;;;;14.52;100.00;101780.91;2615458;36;20042;-76
2021/09/13 18:55:35;;;;;;;6.70;3.53;;;;;;;14.51;100.00;101781.06;2614575;36;20566;-77
2021/09/13 18:58:06;;;;;;;7.05;4.03;;;;;;;14.47;100.00;101790.44;2612904;36;20042;-77
2021/09/13 19:00:35;;;;;;;10.50;3.83;;;;;;;14.43;100.00;101795.28;2613849;36;20022;-77
2021/09/13 19:03:03;;;;;;;6.15;3.30;;;;;;;14.42;100.00;101792.72;2615289;36;20035;-76
2021/09/13 19:05:32;;;;;;;7.50;3.50;;;;;;;14.37;100.00;101788.56;2616370;36;20023;-76
2021/09/13 19:08:00;;;;;;;7.17;3.90;;;;;;;14.37;100.00;101795.84;2615198;36;20097;-74
2021/09/13 19:10:28;;;;;;;6.68;3.20;;;;;;;14.29;100.00;101792.97;2615577;36;20030;-74
2021/09/13 19:12:56;;;;;;;7.60;3.75;;;;;;;14.26;100.00;101796.81;2615275;36;20109;-75
2021/09/13 19:15:27;;;;;;;8.30;3.70;;;;;;;14.27;100.00;101794.97;2616603;31;20080;-75
2021/09/13 19:17:55;;;;;;;6.63;3.70;;;;;;;14.24;100.00;101801.50;2615280;36;20034;-75
2021/09/13 19:20:25;;;;;;;6.85;3.85;;;;;;;14.23;100.00;101799.78;2615546;36;20038;-74
2021/09/13 19:23:00;;;;;;;8.48;3.70;;;;;;;14.14;100.00;101797.91;2616820;31;20035;-76
2021/09/13 19:25:29;;;;;;;10.07;4.40;;;;;;;14.16;100.00;101801.31;2614943;36;20029;-76
2021/09/13 19:27:57;;;;;;;8.85;4.18;;;;;;;14.12;100.00;101797.16;2614258;36;20026;-79
2021/09/13 19:30:29;;;;;;;7.37;3.90;;;;;;;14.01;100.00;101801.69;2612984;36;20031;-78
2021/09/13 19:32:58;;;;;;;9.43;3.92;;;;;;;13.97;100.00;101794.84;2614880;31;20503;-76
2021/09/13 19:35:26;;;;;;;5.95;3.75;;;;;;;13.94;100.00;101802.38;2615899;36;20038;-77
2021/09/13 19:37:56;;;;;;;8.73;3.70;;;;;;;13.90;100.00;101801.78;2616065;36;20542;-76
2021/09/13 19:40:25;;;;;;;7.95;4.32;;;;;;;13.85;100.00;101801.31;2616349;36;20426;-76
2021/09/13 19:42:53;;;;;;;7.90;4.30;;;;;;;13.83;100.00;101800.63;2615828;36;20151;-75
2021/09/13 19:45:22;;;;;;;10.32;5.10;;;;;;;13.78;100.00;101798.31;2615304;36;20097;-75
2021/09/13 19:47:52;;;;;;;7.15;4.18;;;;;;;13.76;100.00;101800.28;2615726;36;20601;-76
2021/09/13 19:50:21;;;;;;;8.00;4.47;;;;;;;13.72;100.00;101796.16;2614262;31;20042;-80
2021/09/13 19:52:49;;;;;;;9.00;4.40;;;;;;;13.68;100.00;101794.69;2613235;36;20034;-76
2021/09/13 19:55:17;;;;;;;8.15;4.63;;;;;;;13.62;100.00;101793.38;2614103;36;20110;-78
2021/09/13 19:57:46;;;;;;;7.47;4.60;;;;;;;13.60;100.00;101792.66;2616327;36;20447;-75
2021/09/13 20:00:15;;;;;;;9.88;5.38;;;;;;;13.69;100.00;101795.53;2614375;36;20110;-76
2021/09/13 20:02:43;;;;;;;;;;;;;;;13.74;100.00;101787.91;2615876;36;20050;-76
2021/09/13 20:05:15;;;;;;;13.45;4.65;;;;;;;13.73;100.00;101791.59;2615002;31;20458;-77
2021/09/13 20:07:43;;;;;;;8.98;4.03;;;;;;;13.81;100.00;101789.09;2616875;36;20023;-77
2021/09/13 20:10:13;;;;;;;6.57;4.20;;;;;;;13.78;100.00;101789.31;2615080;31;20051;-76
2021/09/13 20:12:42;;;;;;;8.07;4.50;;;;;;;13.72;100.00;101790.75;2614656;36;20041;-76
2021/09/13 20:15:15;;;;;;;10.35;4.70;;;;;;;13.69;100.00;101790.13;2614623;36;20059;-77
2021/09/13 20:17:43;;;;;;;6.68;4.13;;;;;;;13.64;100.00;101794.09;2615777;31;20570;-75
2021/09/13 20:20:15;;;;;;;8.20;4.00;;;;;;;13.59;100.00;101785.53;2616632;31;20467;-76
2021/09/13 20:22:43;;;;;;;3.63;2.90;;;;;;;13.62;100.00;101779.84;2614603;36;20026;-75
2021/09/13 20:25:12;;;;;;;12.45;4.10;;;;;;;13.53;100.00;101780.66;2615283;36;20122;-77
2021/09/13 20:27:40;;;;;;;7.53;3.58;;;;;;;13.51;100.00;101781.78;2614961;36;20342;-76
2021/09/13 20:30:10;;;;;;;10.57;3.00;;;;;;;13.44;100.00;101785.00;2615406;36;20118;-76
2021/09/13 20:32:39;;;;;;;5.15;2.88;;;;;;;13.41;100.00;101781.69;2614202;31;20797;-78
2021/09/13 20:35:07;;;;;;;4.53;2.67;;;;;;;13.36;100.00;101794.78;2616496;36;20449;-76
2021/09/13 20:37:39;;;;;;;6.75;2.70;;;;;;;13.37;100.00;101785.66;2615453;36;20073;-76
2021/09/13 20:40:12;;;;;;;5.90;3.10;;;;;;;13.30;100.00;101783.44;2614587;36;20165;-78
2021/09/13 20:45:46;;;;;;;5.47;2.28;;;;;;;13.22;100.00;101785.09;2614903;36;20023;-76
2021/09/13 20:48:14;;;;;;;5.97;2.95;;;;;;;13.22;100.00;101785.09;2630329;36;20545;-77
2021/09/13 20:50:46;;;;;;;3.95;2.60;;;;;;;13.21;100.00;101788.81;2613364;36;22463;-78
2021/09/13 20:53:47;;;;;;;5.05;2.70;;;;;;;13.12;100.00;101775.06;2614254;36;20022;-77
2021/09/13 20:56:15;;;;;;;5.28;2.60;;;;;;;13.14;100.00;101774.94;2613043;36;20143;-76
2021/09/13 20:58:44;;;;;;;8.05;2.92;;;;;;;13.08;100.00;101775.47;2633354;36;20034;-76
2021/09/13 21:01:12;;;;;;;6.35;2.97;;;;;;;13.08;100.00;101767.34;2613270;36;20042;-77
2021/09/13 21:03:41;;;;;;;5.30;2.70;;;;;;;13.02;100.00;101773.28;2613805;31;20445;-77
2021/09/13 21:06:09;;;;;;;5.45;2.72;;;;;;;13.07;100.00;101765.63;2615738;31;20462;-76
2021/09/13 21:08:37;;;;;;;4.90;2.40;;;;;;;13.05;100.00;101773.03;2614370;36;20046;-77
2021/09/13 21:11:08;;;;;;;5.25;2.53;;;;;;;13.04;100.00;101764.03;2613638;31;20070;-79
2021/09/13 21:13:37;;;;;;;6.03;2.53;;;;;;;13.03;100.00;101767.75;2614137;36;20030;-76
2021/09/13 21:16:06;;;;;;;4.82;3.03;;;;;;;13.07;100.00;101776.44;2614084;36;20170;-76
2021/09/13 21:18:34;;;;;;;4.85;2.70;;;;;;;13.05;100.00;101763.06;2614338;36;20077;-77
2021/09/13 21:21:03;;;;;;;6.33;2.70;;;;;;;12.95;100.00;101768.38;2615057;36;20061;-77
2021/09/13 21:23:31;;;;;;;5.45;2.67;;;;;;;12.99;100.00;101773.56;2615270;36;20336;-82
2021/09/13 21:26:00;;;;;;;5.60;2.70;;;;;;;13.01;100.00;101766.16;2614308;36;20088;-75
2021/09/13 21:28:30;;;;;;;4.63;2.80;;;;;;;12.95;100.00;101771.06;2617447;36;20643;-75
2021/09/13 21:30:59;;;;;;;5.13;2.42;;;;;;;13.05;100.00;101773.03;2617451;36;20046;-78
2021/09/13 21:33:27;;;;;;;5.95;2.40;;;;;;;13.03;100.00;101774.97;2617305;31;20518;-77
2021/09/13 21:35:55;;;;;;;3.60;2.13;;;;;;;13.03;100.00;101769.56;2617747;36;20446;-78
2021/09/13 21:38:24;;;;;;;4.95;2.63;;;;;;;13.04;100.00;101763.19;2616858;36;20042;-80
2021/09/13 21:40:52;;;;;;;6.10;2.58;;;;;;;13.04;100.00;101757.78;2616878;36;20543;-77
2021/09/13 21:43:20;;;;;;;6.30;2.40;;;;;;;13.02;100.00;101759.78;2617128;36;20076;-77
2021/09/13 21:45:51;;;;;;;4.45;2.55;;;;;;;12.99;100.00;101757.34;2617226;36;20069;-77
2021/09/13 21:48:23;;;;;;;5.68;2.70;;;;;;;12.91;100.00;101764.25;2613688;36;20035;-78
2021/09/13 21:50:52;;;;;;;4.40;2.63;;;;;;;12.88;100.00;101769.91;2617145;36;20610;-77
2021/09/13 21:53:20;;;;;;;10.77;2.37;;;;;;;12.90;100.00;101765.22;2617087;36;20608;-77
2021/09/13 21:55:48;;;;;;;3.05;2.42;;;;;;;12.90;100.00;101767.91;2617092;36;20118;-81
2021/09/13 21:58:16;;;;;;;6.72;2.63;;;;;;;12.87;100.00;101765.47;2616868;36;20043;-78
2021/09/13 22:00:45;;;;;;;4.40;2.45;;;;;;;12.88;100.00;101780.72;2617064;36;20081;-80
2021/09/13 22:03:15;;;;;;;6.27;3.07;;;;;;;12.85;100.00;101764.72;2616435;36;20498;-77
2021/09/13 22:05:44;;;;;;;4.65;2.55;;;;;;;12.92;100.00;101765.09;2617022;36;20065;-77
2021/09/13 22:08:13;;;;;;;4.75;2.60;;;;;;;12.87;100.00;101762.78;2617234;36;20031;-77
2021/09/13 22:10:41;;;;;;;;;;;;;;;12.85;100.00;101753.94;2617076;36;20030;-78
2021/09/13 22:13:09;;;;;;;5.05;2.30;;;;;;;12.84;100.00;101756.75;2618100;31;20360;-77
2021/09/13 22:15:38;;;;;;;3.43;2.47;;;;;;;12.78;100.00;101759.00;2617051;36;20538;-77
2021/09/13 22:18:06;;;;;;;3.78;2.50;;;;;;;12.68;100.00;101749.97;2616966;31;20593;-78
2021/09/13 22:20:37;;;;;;;5.32;2.45;;;;;;;12.69;100.00;101748.09;2617258;36;20038;-77
2021/09/13 22:23:05;;;;;;;2.95;2.35;;;;;;;12.67;100.00;101752.78;2617396;36;20441;-78
2021/09/13 22:25:33;;;;;;;5.43;2.60;;;;;;;12.65;100.00;101758.31;2617204;36;20447;-76
2021/09/13 22:28:02;;;;;;;5.13;2.58;;;;;;;12.64;100.00;101753.88;2616261;36;20553;-77
2021/09/13 22:30:30;;;;;;;7.30;3.10;;;;;;;12.64;100.00;101745.78;2617282;36;20042;-77
2021/09/13 22:32:58;;;;;;;6.95;3.40;;;;;;;12.71;100.00;101740.75;2616845;36;20065;-76
2021/09/13 22:35:27;;;;;;;5.43;2.95;;;;;;;12.70;100.00;101739.03;2616538;36;20069;-80
2021/09/13 22:37:57;;;;;;;6.93;3.20;;;;;;;12.69;100.00;101737.28;2617018;36;20027;-77
2021/09/13 22:40:26;;;;;;;8.18;3.53;;;;;;;12.73;100.00;101736.91;2616865;36;20038;-78
2021/09/13 22:42:54;;;;;;;7.95;3.33;;;;;;;12.70;100.00;101728.22;2617193;36;20042;-77
2021/09/13 22:45:22;;;;;;;7.70;3.25;;;;;;;12.72;100.00;101734.34;2617332;36;20081;-81
2021/09/13 22:47:50;;;;;;;5.82;3.03;;;;;;;12.69;100.00;101737.28;2616626;36;20055;-81
2021/09/13 22:50:19;;;;;;;9.73;3.42;;;;;;;12.81;100.00;101738.97;2615774;36;20030;-77
2021/09/13 22:52:47;;;;;;;7.03;3.47;;;;;;;12.73;100.00;101745.00;2616780;36;20089;-77
2021/09/13 22:55:18;;;;;;;6.05;3.10;;;;;;;12.75;100.00;101740.34;2615741;36;20554;-78
2021/09/13 22:57:46;;;;;;;6.18;3.15;;;;;;;12.79;100.00;101738.25;2615906;36;20026;-77
2021/09/13 23:00:16;;;;;;;5.68;3.20;;;;;;;12.84;100.00;101740.56;2616083;36;21312;-77
2021/09/13 23:02:44;;;;;;;4.78;2.63;;;;;;;12.79;100.00;101739.13;2616737;36;20026;-78
2021/09/13 23:05:13;;;;;;;3.90;2.90;;;;;;;12.75;100.00;101736.78;2615029;36;20054;-80
2021/09/13 23:07:41;;;;;;;6.20;3.17;;;;;;;12.72;100.00;101742.44;2615517;36;20354;-78
2021/09/13 23:10:11;;;;;;;5.87;3.27;;;;;;;12.65;100.00;101736.72;2615760;36;20069;-80
2021/09/13 23:12:41;;;;;;;;;;;;;;;12.66;100.00;101742.97;2617001;36;20033;-79
2021/09/13 23:15:11;;;;;;;5.35;3.35;;;;;;;12.68;100.00;101747.25;2616072;36;19939;-77
2021/09/13 23:17:39;;;;;;;;;;;;;;;12.55;100.00;101752.81;2615231;36;20069;-77
2021/09/13 23:20:09;;;;;;;7.40;3.97;;;;;;;12.53;100.00;101744.00;2616531;36;19942;-77
2021/09/13 23:22:37;;;;;;;6.30;3.40;;;;;;;12.51;100.00;101735.13;2617201;31;20494;-79
2021/09/13 23:25:06;;;;;;;7.53;3.38;;;;;;;12.38;100.00;101729.03;2616580;36;20658;-77
2021/09/13 23:27:34;;;;;;;;;;;;;;;12.41;100.00;101734.19;2616050;36;20050;-76
2021/09/13 23:30:06;;;;;;;6.18;3.33;;;;;;;12.39;100.00;101736.16;2616695;36;19989;-80
2021/09/13 23:32:35;;;;;;;7.97;4.15;;;;;;;12.31;100.00;101722.44;2616319;36;20038;-79
2021/09/13 23:35:03;;;;;;;7.78;3.90;;;;;;;12.25;100.00;101727.38;2616275;36;20069;-77
2021/09/13 23:37:31;;;;;;;7.75;3.80;;;;;;;12.20;100.00;101726.03;2615413;36;20084;-77
2021/09/13 23:39:59;;;;;;;7.38;4.40;;;;;;;12.23;100.00;101725.75;2616212;36;20088;-79
2021/09/13 23:42:27;;;;;;;7.03;4.25;;;;;;;12.28;100.00;101720.88;2616250;36;20434;-79
2021/09/13 23:44:56;;;;;;;6.35;4.10;;;;;;;12.32;100.00;101718.75;2616259;31;20084;-77
2021/09/13 23:47:26;;;;;;;7.93;4.55;;;;;;;12.20;100.00;101734.13;2615806;36;20153;-78
2021/09/13 23:49:55;;;;;;;10.30;4.50;;;;;;;12.24;100.00;101732.88;2616321;36;20154;-79
2021/09/13 23:52:23;;;;;;;10.10;4.30;;;;;;;12.20;100.00;101729.56;2614873;36;20089;-77
2021/09/13 23:54:54;;;;;;;8.13;4.10;;;;;;;12.21;100.00;101738.53;2615939;36;20157;-78
2021/09/13 23:57:22;;;;;;;10.23;5.00;;;;;;;12.17;100.00;101737.91;2615925;36;20081;-77
2021/09/13 23:59:50;;;;;;;9.27;4.88;;;;;;;12.14;100.00;101748.13;2616889;36;20126;-79
